createdAt,value
2017-11-23T00:02:11.277Z,4.70
2017-11-23T00:04:43.544Z,6.20
2017-11-23T00:07:18.146Z,4.20
2017-11-23T00:09:51.369Z,3.90
2017-11-23T00:12:26.494Z,11.18
2017-11-23T00:15:04.237Z,4.70
2017-11-23T00:17:40.885Z,4.62
2017-11-23T00:20:18.508Z,5.72
2017-11-23T00:22:50.718Z,3.35
2017-11-23T00:25:24.936Z,5.07
2017-11-23T00:27:56.790Z,5.07
2017-11-23T00:30:28.858Z,4.03
2017-11-23T00:52:46.961Z,7.53
2017-11-23T00:55:18.891Z,5.85
2017-11-23T00:57:50.639Z,4.68
2017-11-23T01:00:24.141Z,3.65
2017-11-23T01:02:55.689Z,4.12
2017-11-23T01:05:33.390Z,5.87
2017-11-23T01:08:07.291Z,4.62
2017-11-23T01:10:41.000Z,4.87
2017-11-23T01:13:12.250Z,4.10
2017-11-23T01:15:44.539Z,5.37
2017-11-23T01:18:29.369Z,6.55
2017-11-23T01:21:00.311Z,3.78
2017-11-23T01:23:34.010Z,3.65
2017-11-23T01:26:07.410Z,4.10
2017-11-23T01:28:42.540Z,5.70
2017-11-23T01:31:13.988Z,4.32
2017-11-23T01:33:46.219Z,4.18
2017-11-23T01:36:18.131Z,4.00
2017-11-23T01:38:49.150Z,5.65
2017-11-23T01:41:20.820Z,3.42
2017-11-23T01:43:54.510Z,4.30
2017-11-23T01:46:30.370Z,4.60
2017-11-23T01:49:00.521Z,3.40
2017-11-23T01:51:32.449Z,4.03
2017-11-23T01:54:04.930Z,4.25
2017-11-23T01:56:39.749Z,4.40
2017-11-23T01:59:15.910Z,4.15
2017-11-23T02:01:46.139Z,4.62
2017-11-23T02:04:18.440Z,7.22
2017-11-23T02:06:50.270Z,4.72
2017-11-23T02:09:21.409Z,3.45
2017-11-23T02:11:55.319Z,4.93
2017-11-23T02:14:27.489Z,3.90
2017-11-23T02:16:59.489Z,4.10
2017-11-23T02:19:31.310Z,5.18
2017-11-23T02:22:09.730Z,4.00
2017-11-23T02:24:42.090Z,3.70
2017-11-23T02:27:16.508Z,4.93
2017-11-23T02:29:50.010Z,6.43
2017-11-23T02:32:25.773Z,6.85
2017-11-23T02:35:03.969Z,6.00
2017-11-23T02:37:35.327Z,4.35
2017-11-23T02:40:07.071Z,5.25
2017-11-23T02:42:38.110Z,4.20
2017-11-23T02:45:09.093Z,4.80
2017-11-23T02:47:39.610Z,4.45
2017-11-23T02:50:11.950Z,5.10
2017-11-23T02:52:43.900Z,4.25
2017-11-23T02:55:15.680Z,4.40
2017-11-23T02:57:46.709Z,4.72
2017-11-23T03:00:18.970Z,5.37
2017-11-23T03:02:49.910Z,5.65
2017-11-23T03:05:20.160Z,6.00
2017-11-23T03:07:53.940Z,8.00
2017-11-23T03:10:27.540Z,10.38
2017-11-23T03:12:59.910Z,9.48
2017-11-23T03:15:35.149Z,8.10
2017-11-23T03:18:06.926Z,8.43
2017-11-23T03:20:38.230Z,6.82
2017-11-23T03:23:10.210Z,6.68
2017-11-23T03:25:42.269Z,7.30
2017-11-23T03:28:14.149Z,6.18
2017-11-23T03:30:45.391Z,8.35
2017-11-23T03:33:18.581Z,12.50
2017-11-23T03:35:49.224Z,11.02
2017-11-23T03:38:20.340Z,11.30
2017-11-23T03:40:52.410Z,8.75
2017-11-23T03:43:25.910Z,6.15
2017-11-23T03:45:57.150Z,7.80
2017-11-23T03:48:29.128Z,7.30
2017-11-23T03:51:01.086Z,10.00
2017-11-23T03:53:32.839Z,7.78
2017-11-23T03:56:05.448Z,5.80
2017-11-23T03:58:37.780Z,4.62
2017-11-23T04:01:08.732Z,4.37
2017-11-23T04:03:42.830Z,4.87
2017-11-23T04:06:19.202Z,4.72
2017-11-23T04:08:51.271Z,3.90
2017-11-23T04:11:30.689Z,6.57
2017-11-23T04:14:02.200Z,3.72
2017-11-23T04:16:34.350Z,6.60
2017-11-23T04:19:11.249Z,6.10
2017-11-23T04:21:43.130Z,5.30
2017-11-23T04:24:19.619Z,3.95
2017-11-23T04:26:52.300Z,7.22
2017-11-23T04:29:24.990Z,9.60
2017-11-23T04:31:56.639Z,7.32
2017-11-23T04:34:29.124Z,6.32
2017-11-23T04:37:02.209Z,4.30
2017-11-23T04:39:35.230Z,6.65
2017-11-23T04:42:06.941Z,4.25
2017-11-23T04:44:38.388Z,5.65
2017-11-23T04:47:10.279Z,4.30
2017-11-23T04:49:41.290Z,5.68
2017-11-23T04:52:14.100Z,5.20
2017-11-23T04:54:45.119Z,5.78
2017-11-23T04:57:16.689Z,6.90
2017-11-23T04:59:49.070Z,4.95
2017-11-23T05:02:19.589Z,8.98
2017-11-23T05:04:52.139Z,5.20
2017-11-23T05:07:23.310Z,6.75
2017-11-23T05:09:56.679Z,16.60
2017-11-23T05:12:31.499Z,5.72
2017-11-23T05:15:03.460Z,4.70
2017-11-23T05:17:35.321Z,7.78
2017-11-23T05:20:06.810Z,7.80
2017-11-23T05:22:40.590Z,6.30
2017-11-23T05:25:14.999Z,6.15
2017-11-23T05:27:48.708Z,8.60
2017-11-23T05:30:20.298Z,5.07
2017-11-23T05:32:55.910Z,5.30
2017-11-23T05:35:27.548Z,6.30
2017-11-23T05:37:59.439Z,5.25
2017-11-23T05:40:30.490Z,7.00
2017-11-23T05:43:02.620Z,7.60
2017-11-23T05:45:33.762Z,6.85
2017-11-23T05:48:08.910Z,5.37
2017-11-23T05:50:41.071Z,4.80
2017-11-23T05:53:11.502Z,5.62
2017-11-23T05:55:43.502Z,5.57
2017-11-23T05:58:16.069Z,16.25
2017-11-23T06:00:47.389Z,6.95
2017-11-23T06:03:23.749Z,6.37
2017-11-23T06:05:55.920Z,6.25
2017-11-23T06:08:34.949Z,11.68
2017-11-23T06:11:08.749Z,7.28
2017-11-23T06:13:41.349Z,7.53
2017-11-23T06:16:11.959Z,4.80
2017-11-23T06:18:42.790Z,7.95
2017-11-23T06:21:15.190Z,3.67
2017-11-23T06:23:45.380Z,5.22
2017-11-23T06:26:17.381Z,7.00
2017-11-23T06:28:49.571Z,8.80
2017-11-23T06:31:21.983Z,11.98
2017-11-23T06:33:56.120Z,12.57
2017-11-23T06:36:26.730Z,9.82
2017-11-23T06:39:02.180Z,7.05
2017-11-23T06:41:35.661Z,8.20
2017-11-23T06:44:07.340Z,7.37
2017-11-23T06:46:39.420Z,8.98
2017-11-23T06:49:11.867Z,8.10
2017-11-23T06:51:48.630Z,10.70
2017-11-23T06:54:20.421Z,7.28
2017-11-23T06:56:57.679Z,10.48
2017-11-23T06:59:29.770Z,11.80
2017-11-23T07:02:02.320Z,12.52
2017-11-23T07:04:34.081Z,9.23
2017-11-23T07:07:06.350Z,11.30
2017-11-23T07:09:38.400Z,8.43
2017-11-23T07:12:11.250Z,6.47
2017-11-23T07:14:42.440Z,8.07
2017-11-23T07:17:15.981Z,8.70
2017-11-23T07:19:48.450Z,8.68
2017-11-23T07:22:19.550Z,8.25
2017-11-23T07:24:50.079Z,20.05
2017-11-23T07:27:30.855Z,5.10
2017-11-23T07:30:03.021Z,12.27
2017-11-23T07:32:35.700Z,7.78
2017-11-23T07:35:07.960Z,8.38
2017-11-23T07:37:40.130Z,10.57
2017-11-23T07:40:11.371Z,9.80
2017-11-23T07:42:43.210Z,8.15
2017-11-23T07:45:14.609Z,7.75
2017-11-23T07:47:48.010Z,8.13
2017-11-23T07:50:20.560Z,9.93
2017-11-23T07:52:51.683Z,9.15
2017-11-23T07:55:24.190Z,8.77
2017-11-23T07:57:56.009Z,23.90
2017-11-23T08:00:29.320Z,12.80
2017-11-23T08:03:01.370Z,10.25
2017-11-23T08:05:33.359Z,7.62
2017-11-23T08:08:06.430Z,12.45
2017-11-23T08:10:38.589Z,11.38
2017-11-23T08:13:11.531Z,10.55
2017-11-23T08:15:46.649Z,7.47
2017-11-23T08:18:20.530Z,5.28
2017-11-23T08:20:51.880Z,7.10
2017-11-23T08:23:26.611Z,11.00
2017-11-23T08:26:04.240Z,8.70
2017-11-23T08:28:36.570Z,6.25
2017-11-23T08:31:08.469Z,11.48
2017-11-23T08:33:39.670Z,6.90
2017-11-23T08:36:11.251Z,4.90
2017-11-23T08:38:42.880Z,4.93
2017-11-23T08:41:15.240Z,9.55
2017-11-23T08:43:47.215Z,5.18
2017-11-23T08:46:19.169Z,5.25
2017-11-23T08:48:50.530Z,8.55
2017-11-23T08:51:23.409Z,5.85
2017-11-23T08:53:58.230Z,3.75
2017-11-23T08:56:29.370Z,4.03
2017-11-23T08:59:01.541Z,6.20
2017-11-23T09:01:32.547Z,5.10
2017-11-23T09:04:11.710Z,6.15
2017-11-23T09:06:44.791Z,6.37
2017-11-23T09:09:16.240Z,8.13
2017-11-23T09:11:48.501Z,4.70
2017-11-23T09:14:28.238Z,5.28
2017-11-23T09:17:00.309Z,5.80
2017-11-23T09:19:36.064Z,8.57
2017-11-23T09:22:15.093Z,4.00
2017-11-23T09:24:47.963Z,5.70
2017-11-23T09:27:22.192Z,6.90
2017-11-23T09:29:57.426Z,3.35
2017-11-23T09:32:32.991Z,3.08
2017-11-23T09:35:08.991Z,9.25
2017-11-23T09:37:43.680Z,5.70
2017-11-23T09:40:15.871Z,3.35
2017-11-23T09:42:50.456Z,7.85
2017-11-23T09:45:20.824Z,9.18
2017-11-23T09:47:56.644Z,3.20
2017-11-23T09:50:29.823Z,4.28
2017-11-23T09:53:01.789Z,4.07
2017-11-23T09:55:34.483Z,4.75
2017-11-23T09:58:07.850Z,3.60
2017-11-23T10:00:42.581Z,4.87
2017-11-23T10:03:14.040Z,4.57
2017-11-23T10:05:46.311Z,2.30
2017-11-23T10:08:18.377Z,2.60
2017-11-23T10:10:49.273Z,3.45
2017-11-23T10:13:21.720Z,11.57
2017-11-23T10:15:53.559Z,6.28
2017-11-23T10:18:28.360Z,5.82
2017-11-23T10:21:00.740Z,9.13
2017-11-23T10:23:33.010Z,10.15
2017-11-23T10:26:08.890Z,8.25
2017-11-23T10:28:41.140Z,6.65
2017-11-23T10:31:14.530Z,8.43
2017-11-23T10:33:45.970Z,12.18
2017-11-23T10:36:17.729Z,8.38
2017-11-23T10:38:52.211Z,12.27
2017-11-23T10:41:24.159Z,9.63
2017-11-23T10:43:58.238Z,11.40
2017-11-23T10:46:29.880Z,12.50
2017-11-23T10:49:01.950Z,10.43
2017-11-23T10:51:33.910Z,9.95
2017-11-23T10:54:07.611Z,10.65
2017-11-23T10:56:38.759Z,15.27
2017-11-23T10:59:12.048Z,9.23
2017-11-23T11:01:44.829Z,15.35
2017-11-23T11:04:17.261Z,10.45
2017-11-23T11:06:48.790Z,10.07
2017-11-23T11:09:21.119Z,10.52
2017-11-23T11:11:55.305Z,11.05
2017-11-23T11:14:26.490Z,9.98
2017-11-23T11:16:57.280Z,13.70
2017-11-23T11:19:28.459Z,10.82
2017-11-23T11:22:00.326Z,9.27
2017-11-23T11:24:32.579Z,14.30
2017-11-23T11:27:08.059Z,9.65
2017-11-23T11:29:43.250Z,11.32
2017-11-23T11:32:23.720Z,11.32
2017-11-23T11:34:55.879Z,10.75
2017-11-23T11:37:28.500Z,12.43
2017-11-23T11:40:00.980Z,23.60
2017-11-23T11:42:32.890Z,8.95
2017-11-23T11:45:04.320Z,11.90
2017-11-23T11:47:37.580Z,12.45
2017-11-23T11:50:11.141Z,11.77
2017-11-23T11:52:47.837Z,10.82
2017-11-23T11:55:19.929Z,15.35
2017-11-23T11:57:51.999Z,13.57
2017-11-23T12:00:24.039Z,16.52
2017-11-23T12:02:58.749Z,13.93
2017-11-23T12:05:34.391Z,9.30
2017-11-23T12:08:05.291Z,13.02
2017-11-23T12:10:36.280Z,9.55
2017-11-23T12:13:08.459Z,10.50
2017-11-23T12:18:55.979Z,11.48
2017-11-23T12:21:51.919Z,12.73
2017-11-23T12:24:38.250Z,14.90
2017-11-23T12:27:11.280Z,13.23
2017-11-23T12:29:54.810Z,15.60
2017-11-23T12:32:25.790Z,12.27
2017-11-23T12:35:01.206Z,12.93
2017-11-23T12:37:32.851Z,13.23
2017-11-23T12:40:09.719Z,10.65
2017-11-23T12:42:42.609Z,11.38
2017-11-23T12:45:13.640Z,13.15
2017-11-23T12:47:54.082Z,11.35
2017-11-23T12:50:27.839Z,12.50
2017-11-23T12:52:59.870Z,11.10
2017-11-23T12:55:34.610Z,17.33
2017-11-23T12:58:07.010Z,13.82
2017-11-23T13:00:43.149Z,18.77
2017-11-23T13:03:16.484Z,14.48
2017-11-23T13:05:48.720Z,14.15
2017-11-23T13:08:20.570Z,13.48
2017-11-23T13:10:51.609Z,17.08
2017-11-23T13:13:23.340Z,11.90
2017-11-23T13:15:58.398Z,10.80
2017-11-23T13:18:29.739Z,10.73
2017-11-23T13:21:02.290Z,12.02
2017-11-23T13:23:33.870Z,12.50
2017-11-23T13:26:09.338Z,12.77
2017-11-23T13:28:41.156Z,15.38
2017-11-23T13:31:13.761Z,18.65
2017-11-23T13:33:45.920Z,18.48
2017-11-23T13:36:17.770Z,19.98
2017-11-23T13:38:51.266Z,12.95
2017-11-23T13:41:23.840Z,15.77
2017-11-23T13:43:54.940Z,6.37
2017-11-23T13:46:26.340Z,6.68
2017-11-23T13:48:58.099Z,5.55
2017-11-23T13:51:31.185Z,15.18
2017-11-23T13:54:02.530Z,16.00
2017-11-23T13:56:35.538Z,9.10
2017-11-23T13:59:09.279Z,8.90
2017-11-23T14:01:40.979Z,5.18
2017-11-23T14:04:12.151Z,6.65
2017-11-23T14:06:43.972Z,5.18
2017-11-23T14:09:15.161Z,9.40
2017-11-23T14:11:45.880Z,4.68
2017-11-23T14:14:21.412Z,9.18
2017-11-23T14:16:53.329Z,7.00
2017-11-23T14:19:25.032Z,7.82
2017-11-23T14:21:57.325Z,4.07
2017-11-23T14:24:29.320Z,3.50
2017-11-23T14:27:01.859Z,4.15
2017-11-23T14:29:33.690Z,6.12
2017-11-23T14:32:07.941Z,5.72
2017-11-23T14:34:39.688Z,5.10
2017-11-23T14:37:11.821Z,9.05
2017-11-23T14:39:44.500Z,3.70
2017-11-23T14:42:15.980Z,2.95
2017-11-23T14:44:47.700Z,2.90
2017-11-23T14:47:20.189Z,9.25
2017-11-23T14:49:51.830Z,5.28
2017-11-23T14:52:22.961Z,3.25
2017-11-23T14:54:55.139Z,4.75
2017-11-23T14:57:26.236Z,4.30
2017-11-23T14:59:58.330Z,3.37
2017-11-23T15:02:30.208Z,4.15
2017-11-23T15:05:02.201Z,4.97
2017-11-23T15:07:33.430Z,4.80
2017-11-23T15:10:05.521Z,5.05
2017-11-23T15:12:36.520Z,5.15
2017-11-23T15:15:10.529Z,2.85
2017-11-23T15:17:42.599Z,11.93
2017-11-23T15:20:14.302Z,6.53
2017-11-23T15:22:48.260Z,4.03
2017-11-23T15:25:19.210Z,4.30
2017-11-23T15:27:50.959Z,3.72
2017-11-23T15:30:22.619Z,4.12
2017-11-23T15:32:53.969Z,4.07
2017-11-23T15:35:29.441Z,4.30
2017-11-23T15:38:01.585Z,3.83
2017-11-23T15:40:37.940Z,3.55
2017-11-23T15:43:10.540Z,3.13
2017-11-23T15:45:44.420Z,3.95
2017-11-23T15:48:17.200Z,5.40
2017-11-23T15:50:48.479Z,3.72
2017-11-23T15:53:20.710Z,7.15
2017-11-23T15:55:52.620Z,4.82
2017-11-23T15:58:24.739Z,4.20
2017-11-23T16:01:03.869Z,4.68
2017-11-23T16:03:35.839Z,4.32
2017-11-23T16:06:09.939Z,5.12
2017-11-23T16:08:43.238Z,7.53
2017-11-23T16:11:19.820Z,5.70
2017-11-23T16:13:51.330Z,5.70
2017-11-23T16:16:23.120Z,4.62
2017-11-23T16:18:55.680Z,4.65
2017-11-23T16:21:28.990Z,3.40
2017-11-23T16:24:01.296Z,4.70
2017-11-23T16:26:40.072Z,3.20
2017-11-23T16:29:11.105Z,3.90
2017-11-23T16:31:43.179Z,5.97
2017-11-23T16:34:15.868Z,6.80
2017-11-23T16:36:49.000Z,4.32
2017-11-23T16:39:21.670Z,7.75
2017-11-23T16:45:03.959Z,6.70
2017-11-23T16:47:50.339Z,6.83
2017-11-23T16:50:27.949Z,5.85
2017-11-23T16:53:05.030Z,9.15
2017-11-23T16:55:42.930Z,6.03
2017-11-23T16:58:30.659Z,5.93
2017-11-23T17:01:21.460Z,3.90
2017-11-23T17:03:59.169Z,4.60
2017-11-23T17:06:35.980Z,4.47
2017-11-23T17:09:25.104Z,5.85
2017-11-23T17:12:02.080Z,4.37
2017-11-23T17:14:46.019Z,3.80
2017-11-23T17:17:34.585Z,3.23
2017-11-23T17:20:05.699Z,3.17
2017-11-23T17:22:36.779Z,4.23
2017-11-23T17:25:10.352Z,8.87
2017-11-23T17:27:43.239Z,6.75
2017-11-23T17:30:16.430Z,5.10
2017-11-23T17:32:51.152Z,7.47
2017-11-23T17:35:25.260Z,3.60
2017-11-23T17:38:01.220Z,4.32
2017-11-23T17:40:35.760Z,4.25
2017-11-23T17:43:07.740Z,3.80
2017-11-23T17:45:39.360Z,3.50
2017-11-23T17:48:11.579Z,4.85
2017-11-23T17:50:44.210Z,5.97
2017-11-23T17:53:16.279Z,4.47
2017-11-23T17:55:48.331Z,7.30
2017-11-23T17:58:20.600Z,3.58
2017-11-23T18:00:52.871Z,2.97
2017-11-23T18:03:24.059Z,10.18
2017-11-23T18:05:56.011Z,3.65
2017-11-23T18:08:27.429Z,3.23
2017-11-23T18:10:58.969Z,5.33
2017-11-23T18:13:32.284Z,4.03
2017-11-23T18:16:04.440Z,7.70
2017-11-23T18:18:36.009Z,2.47
2017-11-23T18:21:09.890Z,3.30
2017-11-23T18:23:41.459Z,6.07
2017-11-23T18:26:16.890Z,10.03
2017-11-23T18:28:49.281Z,3.40
2017-11-23T18:31:20.850Z,3.00
2017-11-23T18:33:52.170Z,3.12
2017-11-23T18:36:21.770Z,3.95
2017-11-23T18:38:53.337Z,3.40
2017-11-23T18:41:29.301Z,3.47
2017-11-23T18:44:02.070Z,3.78
2017-11-23T18:46:33.360Z,5.23
2017-11-23T18:49:05.170Z,4.47
2017-11-23T18:51:37.472Z,6.37
2017-11-23T18:54:09.671Z,4.77
2017-11-23T18:56:45.490Z,5.17
2017-11-23T18:59:17.450Z,8.43
2017-11-23T19:01:50.498Z,4.32
2017-11-23T19:04:24.320Z,2.70
2017-11-23T19:06:55.860Z,3.33
2017-11-23T19:09:27.462Z,3.20
2017-11-23T19:11:59.083Z,4.50
2017-11-23T19:14:34.210Z,4.00
2017-11-23T19:17:05.400Z,3.20
2017-11-23T19:19:37.930Z,3.47
2017-11-23T19:22:08.151Z,3.03
2017-11-23T19:24:41.849Z,6.30
2017-11-23T19:27:13.030Z,4.22
2017-11-23T19:29:47.100Z,3.05
2017-11-23T19:32:18.760Z,5.10
2017-11-23T19:34:50.931Z,4.20
2017-11-23T19:37:23.124Z,3.50
2017-11-23T19:39:53.830Z,4.90
2017-11-23T19:42:32.851Z,2.97
2017-11-23T19:45:04.853Z,4.07
2017-11-23T19:47:39.030Z,4.03
2017-11-23T19:50:11.390Z,4.30
2017-11-23T19:52:42.840Z,3.10
2017-11-23T19:55:14.870Z,2.97
2017-11-23T19:57:48.870Z,3.85
2017-11-23T20:00:21.129Z,3.47
2017-11-23T20:02:53.160Z,2.93
2017-11-23T20:05:26.460Z,3.00
2017-11-23T20:07:57.601Z,2.85
2017-11-23T20:10:30.281Z,3.17
2017-11-23T20:13:05.520Z,3.10
2017-11-23T20:15:40.380Z,5.18
2017-11-23T20:18:13.630Z,3.83
2017-11-23T20:20:45.601Z,5.80
2017-11-23T20:23:19.190Z,3.62
2017-11-23T20:25:51.300Z,4.07
2017-11-23T20:28:23.351Z,4.78
2017-11-23T20:31:03.170Z,6.25
2017-11-23T20:33:33.840Z,6.87
2017-11-23T20:36:06.281Z,4.85
2017-11-23T20:38:42.165Z,6.40
2017-11-23T20:41:14.011Z,7.72
2017-11-23T20:43:47.280Z,5.60
2017-11-23T20:46:18.629Z,4.57
2017-11-23T20:48:55.370Z,3.28
2017-11-23T20:51:27.464Z,4.87
2017-11-23T20:53:58.349Z,3.45
2017-11-23T20:56:30.189Z,3.22
2017-11-23T20:59:02.121Z,3.42
2017-11-23T21:01:34.081Z,3.22
2017-11-23T21:04:06.061Z,4.90
2017-11-23T21:06:40.530Z,3.40
2017-11-23T21:09:14.679Z,3.58
2017-11-23T21:11:46.130Z,5.35
2017-11-23T21:14:18.130Z,3.55
2017-11-23T21:16:50.569Z,4.37
2017-11-23T21:19:23.112Z,5.82
2017-11-23T21:21:54.370Z,4.78
2017-11-23T21:24:30.419Z,4.45
2017-11-23T21:27:02.519Z,4.72
2017-11-23T21:29:34.785Z,6.05
2017-11-23T21:32:06.349Z,4.93
2017-11-23T21:34:41.598Z,6.43
2017-11-23T21:37:12.819Z,3.92
2017-11-23T21:39:44.610Z,6.82
2017-11-23T21:42:18.390Z,5.45
2017-11-23T21:44:51.719Z,5.00
2017-11-23T21:47:23.891Z,5.40
2017-11-23T21:49:59.350Z,5.65
2017-11-23T21:52:32.471Z,8.95
2017-11-23T21:55:05.789Z,4.85
2017-11-23T21:57:39.780Z,5.07
2017-11-23T22:00:11.729Z,4.70
2017-11-23T22:02:44.110Z,6.12
2017-11-23T22:05:17.918Z,5.65
2017-11-23T22:07:54.077Z,5.35
2017-11-23T22:10:27.673Z,6.35
2017-11-23T22:13:00.249Z,4.32
2017-11-23T22:15:31.600Z,7.78
2017-11-23T22:18:03.670Z,10.07
2017-11-23T22:20:34.549Z,4.45
2017-11-23T22:23:06.259Z,3.72
2017-11-23T22:25:37.379Z,3.95
2017-11-23T22:28:09.670Z,4.32
2017-11-23T22:30:41.868Z,5.12
2017-11-23T22:33:14.149Z,4.28
2017-11-23T22:35:45.959Z,4.82
2017-11-23T22:38:18.010Z,7.95
2017-11-23T22:40:52.449Z,5.37
2017-11-23T22:43:25.149Z,6.57
2017-11-23T22:45:57.289Z,9.25
2017-11-23T22:48:37.410Z,4.78
2017-11-23T22:51:08.279Z,4.78
2017-11-23T22:53:39.729Z,5.20
2017-11-23T22:56:12.709Z,4.20
2017-11-23T22:58:43.804Z,5.45
2017-11-23T23:01:17.761Z,6.78
2017-11-23T23:03:52.279Z,5.85
2017-11-23T23:06:23.530Z,6.30
2017-11-23T23:08:56.209Z,6.50
2017-11-23T23:11:28.230Z,6.53
2017-11-23T23:14:00.329Z,5.32
2017-11-23T23:16:39.671Z,7.15
2017-11-23T23:19:12.680Z,5.00
2017-11-23T23:21:46.779Z,5.35
2017-11-23T23:24:20.013Z,5.80
2017-11-23T23:26:58.179Z,5.87
2017-11-23T23:29:29.863Z,4.62
2017-11-23T23:32:02.610Z,4.78
2017-11-23T23:34:35.900Z,5.37
2017-11-23T23:37:07.150Z,7.22
2017-11-23T23:39:38.924Z,5.12
2017-11-23T23:42:09.739Z,4.75
2017-11-23T23:44:40.580Z,4.72
2017-11-23T23:47:13.881Z,5.53
2017-11-23T23:49:46.240Z,4.45
2017-11-23T23:52:17.181Z,6.72
2017-11-23T23:54:48.759Z,5.57
2017-11-23T23:57:22.320Z,4.30
2017-11-23T23:59:53.890Z,5.15
